createdAt,value
2022-08-17T00:00:44.112Z,22.40
2022-08-17T00:01:53.229Z,22.40
2022-08-17T00:03:02.934Z,22.40
2022-08-17T00:04:11.726Z,22.40
2022-08-17T00:05:19.957Z,22.40
2022-08-17T00:06:27.561Z,22.30
2022-08-17T00:07:30.645Z,22.30
2022-08-17T00:08:37.067Z,22.30
2022-08-17T00:09:41.439Z,22.30
2022-08-17T00:10:47.552Z,22.30
2022-08-17T00:12:34.866Z,22.30
2022-08-17T00:13:20.087Z,22.30
2022-08-17T00:14:23.690Z,22.30
2022-08-17T00:15:28.062Z,22.30
2022-08-17T00:16:55.334Z,22.30
2022-08-17T00:17:58.363Z,22.30
2022-08-17T00:19:08.342Z,22.20
2022-08-17T00:20:14.227Z,22.20
2022-08-17T00:21:23.731Z,22.20
2022-08-17T00:22:32.279Z,22.20
2022-08-17T00:23:49.137Z,22.20
2022-08-17T00:24:54.617Z,22.20
2022-08-17T00:26:00.862Z,22.20
2022-08-17T00:27:04.360Z,22.20
2022-08-17T00:28:08.881Z,22.20
2022-08-17T00:29:16.477Z,22.20
2022-08-17T00:30:24.232Z,22.10
2022-08-17T00:33:13.722Z,22.10
2022-08-17T00:34:05.406Z,22.10
2022-08-17T00:35:11.454Z,22.10
2022-08-17T00:36:16.809Z,22.10
2022-08-17T00:37:19.760Z,22.10
2022-08-17T00:38:24.589Z,22.00
2022-08-17T00:39:27.420Z,22.00
2022-08-17T00:40:40.828Z,22.00
2022-08-17T00:41:52.479Z,22.00
2022-08-17T00:42:55.994Z,22.00
2022-08-17T00:44:02.424Z,22.00
2022-08-17T00:45:11.134Z,22.00
2022-08-17T00:46:18.843Z,22.00
2022-08-17T00:47:24.642Z,22.00
2022-08-17T00:48:32.470Z,21.90
2022-08-17T00:49:35.636Z,21.90
2022-08-17T00:50:44.539Z,21.90
2022-08-17T00:51:50.984Z,21.90
2022-08-17T00:52:57.643Z,21.90
2022-08-17T00:54:10.090Z,21.90
2022-08-17T00:55:16.715Z,21.90
2022-08-17T00:56:28.940Z,21.90
2022-08-17T00:57:40.381Z,21.90
2022-08-17T00:58:52.525Z,21.80
2022-08-17T01:00:04.088Z,21.80
2022-08-17T01:01:09.129Z,21.80
2022-08-17T01:02:16.934Z,21.80
2022-08-17T01:03:31.557Z,21.80
2022-08-17T01:04:35.844Z,21.80
2022-08-17T01:05:42.299Z,21.80
2022-08-17T01:06:49.488Z,21.80
2022-08-17T01:07:53.275Z,21.70
2022-08-17T01:09:02.116Z,21.70
2022-08-17T01:10:58.954Z,21.70
2022-08-17T01:11:41.489Z,21.70
2022-08-17T01:12:44.465Z,21.70
2022-08-17T01:13:53.682Z,21.70
2022-08-17T01:15:03.130Z,21.70
2022-08-17T01:16:16.095Z,21.60
2022-08-17T01:17:20.883Z,21.60
2022-08-17T01:18:30.630Z,21.60
2022-08-17T01:19:39.301Z,21.60
2022-08-17T01:20:56.400Z,21.60
2022-08-17T01:22:07.724Z,21.60
2022-08-17T01:23:16.463Z,21.60
2022-08-17T01:24:24.815Z,21.60
2022-08-17T01:25:29.724Z,21.60
2022-08-17T01:26:39.354Z,21.60
2022-08-17T01:27:43.110Z,21.60
2022-08-17T01:28:54.602Z,21.60
2022-08-17T01:30:03.724Z,21.60
2022-08-17T01:31:12.884Z,21.60
2022-08-17T01:32:16.373Z,21.60
2022-08-17T01:33:22.010Z,21.60
2022-08-17T01:34:36.825Z,21.60
2022-08-17T01:35:48.249Z,21.60
2022-08-17T01:36:54.319Z,21.60
2022-08-17T01:38:09.547Z,21.60
2022-08-17T01:39:29.394Z,21.60
2022-08-17T01:40:37.793Z,21.60
2022-08-17T01:41:51.728Z,21.60
2022-08-17T01:43:00.284Z,21.60
2022-08-17T01:44:07.832Z,21.70
2022-08-17T01:45:23.180Z,21.70
2022-08-17T01:46:32.199Z,21.70
2022-08-17T01:47:38.284Z,21.70
2022-08-17T01:48:47.539Z,21.70
2022-08-17T01:49:56.084Z,21.70
2022-08-17T01:50:59.189Z,21.70
2022-08-17T01:52:08.610Z,21.70
2022-08-17T01:53:20.083Z,21.70
2022-08-17T01:54:28.861Z,21.70
2022-08-17T01:55:38.553Z,21.70
2022-08-17T01:56:47.325Z,21.70
2022-08-17T01:57:50.710Z,21.70
2022-08-17T01:58:55.684Z,21.70
2022-08-17T01:59:58.568Z,21.70
2022-08-17T02:01:02.780Z,21.70
2022-08-17T02:02:07.379Z,21.60
2022-08-17T02:03:16.150Z,21.50
2022-08-17T02:04:18.919Z,21.40
2022-08-17T02:05:25.470Z,21.20
2022-08-17T02:06:31.286Z,21.10
2022-08-17T02:08:00.251Z,21.00
2022-08-17T02:09:04.773Z,20.90
2022-08-17T02:10:20.111Z,20.80
2022-08-17T02:11:25.795Z,20.70
2022-08-17T02:12:38.474Z,20.70
2022-08-17T02:13:55.120Z,20.60
2022-08-17T02:15:12.547Z,20.50
2022-08-17T02:16:17.905Z,20.40
2022-08-17T02:17:20.762Z,20.40
2022-08-17T02:18:26.911Z,20.30
2022-08-17T02:19:33.210Z,20.20
2022-08-17T02:20:42.517Z,20.20
2022-08-17T02:21:53.195Z,20.10
2022-08-17T02:22:56.494Z,20.10
2022-08-17T02:24:03.611Z,20.10
2022-08-17T02:25:14.917Z,20.00
2022-08-17T02:26:24.095Z,20.00
2022-08-17T02:27:32.587Z,19.90
2022-08-17T02:28:36.950Z,19.90
2022-08-17T02:29:46.284Z,19.80
2022-08-17T02:31:00.970Z,19.80
2022-08-17T02:32:05.952Z,19.80
2022-08-17T02:33:09.869Z,19.80
2022-08-17T02:34:12.894Z,19.80
2022-08-17T02:35:16.405Z,19.80
2022-08-17T02:36:27.546Z,19.70
2022-08-17T02:37:37.015Z,19.70
2022-08-17T02:38:45.417Z,19.70
2022-08-17T02:39:50.947Z,19.70
2022-08-17T02:40:59.552Z,19.70
2022-08-17T02:42:03.150Z,19.70
2022-08-17T02:43:07.074Z,19.70
2022-08-17T02:44:09.897Z,19.70
2022-08-17T02:45:20.997Z,19.70
2022-08-17T02:46:26.700Z,19.60
2022-08-17T02:47:31.316Z,19.60
2022-08-17T02:48:33.978Z,19.60
2022-08-17T02:49:38.388Z,19.60
2022-08-17T02:50:44.159Z,19.60
2022-08-17T02:51:53.456Z,19.60
2022-08-17T02:53:02.311Z,19.60
2022-08-17T02:54:39.256Z,19.60
2022-08-17T02:55:42.317Z,19.60
2022-08-17T02:56:50.408Z,19.60
2022-08-17T02:57:54.323Z,19.50
2022-08-17T02:59:00.612Z,19.50
2022-08-17T03:00:05.792Z,19.50
2022-08-17T03:01:14.943Z,19.50
2022-08-17T03:02:17.906Z,19.40
2022-08-17T03:03:21.892Z,19.40
2022-08-17T03:04:26.327Z,19.40
2022-08-17T03:05:33.183Z,19.40
2022-08-17T03:06:35.864Z,19.40
2022-08-17T03:07:40.574Z,19.40
2022-08-17T03:08:46.591Z,19.40
2022-08-17T03:09:52.089Z,19.40
2022-08-17T03:11:06.000Z,19.40
2022-08-17T03:12:15.415Z,19.40
2022-08-17T03:13:20.706Z,19.40
2022-08-17T03:14:26.349Z,19.40
2022-08-17T03:15:34.184Z,19.40
2022-08-17T03:16:40.103Z,19.50
2022-08-17T03:17:44.827Z,19.50
2022-08-17T03:18:47.491Z,19.50
2022-08-17T03:19:53.536Z,19.50
2022-08-17T03:20:58.720Z,19.50
2022-08-17T03:22:47.910Z,19.50
2022-08-17T03:23:31.790Z,19.50
2022-08-17T03:24:34.893Z,19.50
2022-08-17T03:25:46.171Z,19.60
2022-08-17T03:26:48.906Z,19.60
2022-08-17T03:27:54.254Z,19.60
2022-08-17T03:29:03.506Z,19.60
2022-08-17T03:30:12.289Z,19.60
2022-08-17T03:31:20.243Z,19.60
2022-08-17T03:32:25.826Z,19.60
2022-08-17T03:33:37.093Z,19.60
2022-08-17T03:34:42.415Z,19.60
2022-08-17T03:35:46.422Z,19.60
2022-08-17T03:36:52.235Z,19.60
2022-08-17T03:38:00.399Z,19.60
2022-08-17T03:39:07.656Z,19.60
2022-08-17T03:40:12.095Z,19.60
2022-08-17T03:41:17.374Z,19.60
2022-08-17T03:42:31.804Z,19.70
2022-08-17T03:43:39.905Z,19.70
2022-08-17T03:44:42.606Z,19.70
2022-08-17T03:47:23.337Z,19.70
2022-08-17T03:48:47.257Z,19.70
2022-08-17T03:50:07.626Z,19.70
2022-08-17T03:51:43.968Z,19.70
2022-08-17T03:53:06.807Z,19.70
2022-08-17T03:54:32.622Z,19.70
2022-08-17T03:56:02.419Z,19.70
2022-08-17T03:57:12.562Z,19.70
2022-08-17T03:58:15.202Z,19.70
2022-08-17T03:59:24.528Z,19.70
2022-08-17T04:00:31.521Z,19.70
2022-08-17T04:01:38.840Z,19.70
2022-08-17T04:02:47.594Z,19.70
2022-08-17T04:03:50.373Z,19.70
2022-08-17T04:04:57.135Z,19.60
2022-08-17T04:06:00.916Z,19.60
2022-08-17T04:07:05.608Z,19.60
2022-08-17T04:08:10.414Z,19.60
2022-08-17T04:09:25.519Z,19.60
2022-08-17T04:10:30.853Z,19.60
2022-08-17T04:11:38.704Z,19.60
2022-08-17T04:12:48.574Z,19.60
2022-08-17T04:13:56.874Z,19.60
2022-08-17T04:15:04.603Z,19.60
2022-08-17T04:16:07.828Z,19.60
2022-08-17T04:17:14.974Z,19.60
2022-08-17T04:18:18.671Z,19.60
2022-08-17T04:19:22.855Z,19.60
2022-08-17T04:20:25.935Z,19.60
2022-08-17T04:21:33.010Z,19.60
2022-08-17T04:22:35.608Z,19.60
2022-08-17T04:23:42.346Z,19.60
2022-08-17T04:24:47.001Z,19.60
2022-08-17T04:26:01.672Z,19.60
2022-08-17T04:27:04.756Z,19.60
2022-08-17T04:28:16.141Z,19.60
2022-08-17T04:29:21.160Z,19.60
2022-08-17T04:30:29.028Z,19.60
2022-08-17T04:31:33.386Z,19.60
2022-08-17T04:33:03.939Z,19.60
2022-08-17T04:34:13.224Z,19.60
2022-08-17T04:35:27.886Z,19.60
2022-08-17T04:36:32.053Z,19.60
2022-08-17T04:37:34.867Z,19.60
2022-08-17T04:38:44.307Z,19.60
2022-08-17T04:40:07.346Z,19.60
2022-08-17T04:41:32.855Z,19.60
2022-08-17T04:42:36.903Z,19.60
2022-08-17T04:43:41.760Z,19.60
2022-08-17T04:44:46.609Z,19.60
2022-08-17T04:45:55.928Z,19.60
2022-08-17T04:47:00.735Z,19.60
2022-08-17T04:48:05.821Z,19.50
2022-08-17T04:49:12.585Z,19.50
2022-08-17T04:50:15.473Z,19.50
2022-08-17T04:51:25.623Z,19.50
2022-08-17T04:52:42.631Z,19.50
2022-08-17T04:53:54.364Z,19.50
2022-08-17T04:54:57.620Z,19.50
2022-08-17T04:56:01.251Z,19.50
2022-08-17T04:57:06.303Z,19.50
2022-08-17T04:58:10.267Z,19.50
2022-08-17T04:59:17.327Z,19.50
2022-08-17T05:00:20.465Z,19.50
2022-08-17T05:01:29.346Z,19.50
2022-08-17T05:02:32.793Z,19.50
2022-08-17T05:03:39.761Z,19.50
2022-08-17T05:04:42.349Z,19.50
2022-08-17T05:05:49.655Z,19.50
2022-08-17T05:06:54.639Z,19.50
2022-08-17T05:08:03.549Z,19.50
2022-08-17T05:09:09.189Z,19.50
2022-08-17T05:10:12.131Z,19.50
2022-08-17T05:11:16.175Z,19.50
2022-08-17T05:12:19.062Z,19.50
2022-08-17T05:13:25.608Z,19.50
2022-08-17T05:14:32.726Z,19.50
2022-08-17T05:15:45.085Z,19.50
2022-08-17T05:16:53.048Z,19.50
2022-08-17T05:17:56.099Z,19.50
2022-08-17T05:19:02.778Z,19.50
2022-08-17T05:20:06.853Z,19.50
2022-08-17T05:21:10.694Z,19.50
2022-08-17T05:22:15.301Z,19.40
2022-08-17T05:23:22.205Z,19.40
2022-08-17T05:24:40.785Z,19.40
2022-08-17T05:25:51.286Z,19.40
2022-08-17T05:26:55.401Z,19.40
2022-08-17T05:27:59.435Z,19.40
2022-08-17T05:29:08.067Z,19.40
2022-08-17T05:30:12.892Z,19.40
2022-08-17T05:31:17.816Z,19.40
2022-08-17T05:32:37.868Z,19.40
2022-08-17T05:33:45.199Z,19.40
2022-08-17T05:34:49.260Z,19.40
2022-08-17T05:35:56.037Z,19.50
2022-08-17T05:36:59.982Z,19.50
2022-08-17T05:38:03.238Z,19.50
2022-08-17T05:39:07.227Z,19.50
2022-08-17T05:40:11.324Z,19.50
2022-08-17T05:41:15.154Z,19.50
2022-08-17T05:42:19.992Z,19.60
2022-08-17T05:43:27.112Z,19.60
2022-08-17T05:44:29.865Z,19.60
2022-08-17T05:45:54.177Z,19.60
2022-08-17T05:47:02.784Z,19.60
2022-08-17T05:48:08.544Z,19.70
2022-08-17T05:49:13.923Z,19.70
2022-08-17T05:50:27.127Z,19.70
2022-08-17T05:51:55.537Z,19.70
2022-08-17T05:53:10.825Z,19.80
2022-08-17T05:54:31.177Z,19.80
2022-08-17T05:55:45.958Z,19.80
2022-08-17T05:57:15.870Z,19.80
2022-08-17T05:58:27.522Z,19.90
2022-08-17T05:59:41.136Z,19.90
2022-08-17T06:00:56.697Z,19.90
2022-08-17T06:02:07.974Z,19.90
2022-08-17T06:03:39.291Z,19.90
2022-08-17T06:05:02.561Z,20.00
2022-08-17T06:06:31.241Z,20.00
2022-08-17T06:07:46.260Z,20.00
2022-08-17T06:08:58.299Z,20.00
2022-08-17T06:10:10.083Z,20.00
2022-08-17T06:11:24.029Z,20.00
2022-08-17T06:12:40.431Z,20.00
2022-08-17T06:14:11.132Z,20.00
2022-08-17T06:15:30.620Z,20.10
2022-08-17T06:16:39.961Z,20.10
2022-08-17T06:17:44.666Z,20.00
2022-08-17T06:18:56.126Z,20.10
2022-08-17T06:20:04.875Z,20.10
2022-08-17T06:21:12.103Z,20.00
2022-08-17T06:22:20.056Z,20.10
2022-08-17T06:23:30.700Z,20.10
2022-08-17T06:24:39.918Z,20.10
2022-08-17T06:25:47.864Z,20.10
2022-08-17T06:26:53.432Z,20.10
2022-08-17T06:28:03.981Z,20.10
2022-08-17T06:29:18.893Z,20.10
2022-08-17T06:30:26.212Z,20.20
2022-08-17T06:31:36.997Z,20.20
2022-08-17T06:32:50.523Z,20.40
2022-08-17T06:34:02.925Z,20.50
2022-08-17T06:35:09.561Z,20.70
2022-08-17T06:36:40.577Z,20.90
2022-08-17T06:38:06.233Z,21.10
2022-08-17T06:39:34.615Z,21.30
2022-08-17T06:41:00.807Z,21.50
2022-08-17T06:42:54.910Z,21.60
2022-08-17T06:44:10.024Z,21.70
2022-08-17T06:45:18.147Z,21.80
2022-08-17T06:46:32.263Z,21.90
2022-08-17T06:47:49.159Z,21.90
2022-08-17T06:49:13.157Z,21.90
2022-08-17T06:50:23.406Z,21.80
2022-08-17T06:51:34.945Z,21.80
2022-08-17T06:52:50.539Z,21.80
2022-08-17T06:54:00.268Z,21.80
2022-08-17T06:55:18.221Z,21.70
2022-08-17T06:56:27.116Z,21.70
2022-08-17T06:57:56.865Z,21.70
2022-08-17T06:59:03.069Z,21.80
2022-08-17T07:00:13.473Z,21.90
2022-08-17T07:01:25.790Z,22.00
2022-08-17T07:03:02.640Z,22.20
2022-08-17T07:04:14.970Z,22.30
2022-08-17T07:05:21.748Z,22.40
2022-08-17T07:06:29.682Z,22.50
2022-08-17T07:07:55.509Z,22.50
2022-08-17T07:09:07.998Z,22.50
2022-08-17T07:10:14.807Z,22.60
2022-08-17T07:11:24.794Z,22.60
2022-08-17T07:12:38.640Z,22.60
2022-08-17T07:13:51.866Z,22.60
2022-08-17T07:15:12.893Z,22.70
2022-08-17T07:16:21.952Z,22.70
2022-08-17T07:17:47.740Z,22.80
2022-08-17T07:18:54.740Z,22.80
2022-08-17T07:20:08.628Z,22.80
2022-08-17T07:21:39.592Z,22.90
2022-08-17T07:22:59.551Z,22.90
2022-08-17T07:24:33.374Z,22.90
2022-08-17T07:25:37.465Z,22.90
2022-08-17T07:26:40.754Z,22.90
2022-08-17T07:28:57.245Z,22.90
2022-08-17T07:30:10.960Z,22.90
2022-08-17T07:31:17.734Z,23.00
2022-08-17T07:32:28.415Z,23.00
2022-08-17T07:33:36.903Z,23.00
2022-08-17T07:35:13.083Z,23.00
2022-08-17T07:36:29.842Z,23.00
2022-08-17T07:37:34.395Z,23.00
2022-08-17T07:38:58.008Z,23.00
2022-08-17T07:40:15.099Z,23.10
2022-08-17T07:41:22.434Z,23.10
2022-08-17T07:42:25.572Z,23.10
2022-08-17T07:43:31.778Z,23.10
2022-08-17T07:44:51.601Z,23.10
2022-08-17T07:46:41.303Z,23.10
2022-08-17T07:48:09.365Z,23.10
2022-08-17T07:49:37.107Z,23.10
2022-08-17T07:50:41.392Z,23.20
2022-08-17T07:52:48.549Z,23.20
2022-08-17T07:53:27.249Z,23.20
2022-08-17T07:54:37.032Z,23.30
2022-08-17T07:55:41.854Z,23.40
2022-08-17T07:56:49.326Z,23.40
2022-08-17T07:57:57.768Z,23.40
2022-08-17T07:59:16.161Z,23.50
2022-08-17T08:00:23.894Z,23.50
2022-08-17T08:01:41.811Z,23.50
2022-08-17T08:03:00.673Z,23.50
2022-08-17T08:04:58.870Z,23.50
2022-08-17T08:06:00.391Z,23.50
2022-08-17T08:07:08.543Z,23.50
2022-08-17T08:08:29.625Z,23.50
2022-08-17T08:09:39.718Z,23.50
2022-08-17T08:10:45.277Z,23.50
2022-08-17T08:11:49.472Z,23.40
2022-08-17T08:13:07.570Z,23.40
2022-08-17T08:14:28.656Z,23.30
2022-08-17T08:15:39.413Z,23.30
2022-08-17T08:17:00.329Z,23.30
2022-08-17T08:18:07.690Z,23.20
2022-08-17T08:19:20.990Z,23.20
2022-08-17T08:20:53.245Z,23.10
2022-08-17T08:22:07.665Z,23.00
2022-08-17T08:23:19.768Z,23.00
2022-08-17T08:24:44.491Z,22.90
2022-08-17T08:26:02.670Z,22.90
2022-08-17T08:27:21.768Z,22.80
2022-08-17T08:28:31.589Z,22.80
2022-08-17T08:29:49.933Z,22.80
2022-08-17T08:31:06.514Z,22.80
2022-08-17T08:32:20.681Z,22.70
2022-08-17T08:33:45.571Z,22.70
2022-08-17T08:35:08.732Z,22.70
2022-08-17T08:37:12.583Z,22.60
2022-08-17T08:38:03.674Z,22.60
2022-08-17T08:39:17.211Z,22.60
2022-08-17T08:40:48.620Z,22.60
2022-08-17T08:42:01.893Z,22.60
2022-08-17T08:43:22.141Z,22.50
2022-08-17T08:45:01.150Z,22.50
2022-08-17T08:46:14.233Z,22.50
2022-08-17T08:47:42.626Z,22.50
2022-08-17T08:50:02.523Z,22.50
2022-08-17T08:51:14.433Z,22.50
2022-08-17T08:52:48.145Z,22.60
2022-08-17T08:54:03.464Z,22.60
2022-08-17T08:55:16.729Z,22.60
2022-08-17T08:56:35.410Z,22.50
2022-08-17T08:57:48.217Z,22.60
2022-08-17T08:58:56.809Z,22.60
2022-08-17T09:00:13.550Z,22.50
2022-08-17T09:01:25.604Z,22.50
2022-08-17T09:03:03.736Z,22.50
2022-08-17T09:04:27.877Z,22.50
2022-08-17T09:05:52.811Z,22.50
2022-08-17T09:07:12.747Z,22.60
2022-08-17T09:08:28.145Z,22.60
2022-08-17T09:09:49.668Z,22.50
2022-08-17T09:11:02.546Z,22.50
2022-08-17T09:12:17.017Z,22.50
2022-08-17T09:13:28.036Z,22.50
2022-08-17T09:14:47.142Z,22.50
2022-08-17T09:15:56.110Z,22.50
2022-08-17T09:17:06.187Z,22.50
2022-08-17T09:19:00.458Z,22.50
2022-08-17T09:19:47.770Z,22.50
2022-08-17T09:20:57.490Z,22.40
2022-08-17T09:22:12.027Z,22.40
2022-08-17T09:23:26.085Z,22.40
2022-08-17T09:24:40.155Z,22.40
2022-08-17T09:25:49.911Z,22.40
2022-08-17T09:27:02.467Z,22.40
2022-08-17T09:28:19.073Z,22.40
2022-08-17T09:29:27.043Z,22.40
2022-08-17T09:30:42.622Z,22.50
2022-08-17T09:31:55.162Z,22.50
2022-08-17T09:33:03.246Z,22.50
2022-08-17T09:34:12.897Z,22.50
2022-08-17T09:35:25.246Z,22.60
2022-08-17T09:36:46.648Z,22.60
2022-08-17T09:38:04.696Z,22.60
2022-08-17T09:39:14.621Z,22.60
2022-08-17T09:40:27.046Z,22.70
2022-08-17T09:41:39.448Z,22.70
2022-08-17T09:42:56.798Z,22.70
2022-08-17T09:44:22.527Z,22.70
2022-08-17T09:45:38.457Z,22.60
2022-08-17T09:46:50.407Z,22.60
2022-08-17T09:48:00.154Z,22.60
2022-08-17T09:49:10.598Z,22.60
2022-08-17T09:51:03.915Z,22.60
2022-08-17T09:51:53.120Z,22.50
2022-08-17T09:53:00.322Z,22.50
2022-08-17T09:54:37.443Z,22.40
2022-08-17T09:56:04.740Z,22.40
2022-08-17T09:57:32.513Z,22.30
2022-08-17T09:58:56.443Z,22.30
2022-08-17T10:00:16.817Z,22.40
2022-08-17T10:01:31.575Z,22.40
2022-08-17T10:03:08.462Z,22.40
2022-08-17T10:04:40.933Z,22.40
2022-08-17T10:05:56.271Z,22.50
2022-08-17T10:07:08.454Z,22.60
2022-08-17T10:08:25.613Z,22.60
2022-08-17T10:09:45.802Z,22.70
2022-08-17T10:11:06.993Z,22.80
2022-08-17T10:12:30.051Z,22.80
2022-08-17T10:13:52.827Z,22.90
2022-08-17T10:15:22.567Z,22.90
2022-08-17T10:16:37.357Z,23.00
2022-08-17T10:17:54.331Z,23.00
2022-08-17T10:19:16.169Z,23.10
2022-08-17T10:20:26.556Z,23.10
2022-08-17T10:22:01.065Z,23.20
2022-08-17T10:23:39.706Z,23.20
2022-08-17T10:25:22.565Z,23.30
2022-08-17T10:26:46.175Z,23.30
2022-08-17T10:28:01.142Z,23.40
2022-08-17T10:29:16.841Z,23.40
2022-08-17T10:30:24.298Z,23.50
2022-08-17T10:31:38.065Z,23.50
2022-08-17T10:32:52.410Z,23.50
2022-08-17T10:34:18.769Z,23.50
2022-08-17T10:35:36.161Z,23.50
2022-08-17T10:36:57.191Z,23.50
2022-08-17T10:38:38.265Z,23.60
2022-08-17T10:39:52.721Z,23.60
2022-08-17T10:41:06.783Z,23.60
2022-08-17T10:42:30.380Z,23.60
2022-08-17T10:44:38.064Z,23.70
2022-08-17T10:45:26.380Z,23.70
2022-08-17T10:46:52.371Z,23.70
2022-08-17T10:48:05.867Z,23.70
2022-08-17T10:49:29.570Z,23.70
2022-08-17T10:51:01.206Z,23.70
2022-08-17T10:52:28.131Z,23.70
2022-08-17T10:53:51.277Z,23.80
2022-08-17T10:55:15.471Z,23.80
2022-08-17T10:56:50.612Z,23.80
2022-08-17T10:58:22.109Z,23.90
2022-08-17T10:59:51.366Z,24.00
2022-08-17T11:00:59.764Z,24.10
2022-08-17T11:02:17.878Z,24.20
2022-08-17T11:03:26.341Z,24.30
2022-08-17T11:04:53.581Z,24.50
2022-08-17T11:06:15.316Z,24.60
2022-08-17T11:07:34.611Z,24.60
2022-08-17T11:09:19.860Z,24.70
2022-08-17T11:10:53.581Z,24.70
2022-08-17T11:12:23.917Z,24.70
2022-08-17T11:13:49.558Z,24.70
2022-08-17T11:15:23.345Z,24.70
2022-08-17T11:16:48.087Z,24.60
2022-08-17T11:18:26.571Z,24.50
2022-08-17T11:20:22.058Z,24.40
2022-08-17T11:22:01.898Z,24.20
2022-08-17T11:23:38.666Z,24.10
2022-08-17T11:24:48.134Z,24.00
2022-08-17T11:26:04.037Z,23.90
2022-08-17T11:27:27.599Z,23.90
2022-08-17T11:28:46.912Z,23.80
2022-08-17T11:29:58.080Z,23.80
2022-08-17T11:31:38.712Z,23.70
2022-08-17T11:32:52.955Z,23.70
2022-08-17T11:34:06.658Z,23.60
2022-08-17T11:35:31.757Z,23.50
2022-08-17T11:37:34.183Z,23.50
2022-08-17T11:38:52.640Z,23.40
2022-08-17T11:40:35.497Z,23.40
2022-08-17T11:41:51.819Z,23.30
2022-08-17T11:43:15.430Z,23.30
2022-08-17T11:44:42.831Z,23.30
2022-08-17T11:46:10.929Z,23.30
2022-08-17T11:47:56.959Z,23.30
2022-08-17T11:49:37.230Z,23.30
2022-08-17T11:51:12.554Z,23.30
2022-08-17T11:52:39.412Z,23.30
2022-08-17T11:54:34.653Z,23.30
2022-08-17T11:56:04.269Z,23.30
2022-08-17T11:57:55.010Z,23.30
2022-08-17T11:58:58.721Z,23.30
2022-08-17T12:00:10.786Z,23.30
2022-08-17T12:01:35.387Z,23.30
2022-08-17T12:02:47.904Z,23.40
2022-08-17T12:03:55.770Z,23.30
2022-08-17T12:05:27.609Z,23.30
2022-08-17T12:06:48.430Z,23.30
2022-08-17T12:08:01.244Z,23.30
2022-08-17T12:09:14.850Z,23.20
2022-08-17T12:10:31.857Z,23.20
2022-08-17T12:11:58.615Z,23.20
2022-08-17T12:13:16.791Z,23.20
2022-08-17T12:14:45.376Z,23.10
2022-08-17T12:15:56.470Z,23.10
2022-08-17T12:17:05.454Z,23.10
2022-08-17T12:18:08.066Z,23.00
2022-08-17T12:19:23.807Z,23.00
2022-08-17T12:20:33.468Z,23.00
2022-08-17T12:21:48.516Z,23.00
2022-08-17T12:23:04.203Z,23.00
2022-08-17T12:24:23.034Z,22.90
2022-08-17T12:25:33.461Z,22.90
2022-08-17T12:26:38.937Z,22.90
2022-08-17T12:29:35.841Z,22.80
2022-08-17T12:30:49.941Z,22.80
2022-08-17T12:32:02.303Z,22.80
2022-08-17T12:33:25.395Z,22.70
2022-08-17T12:34:40.817Z,22.70
2022-08-17T12:35:48.001Z,22.70
2022-08-17T12:37:15.035Z,22.70
2022-08-17T12:38:32.056Z,22.60
2022-08-17T12:39:38.599Z,22.60
2022-08-17T12:40:57.977Z,22.60
2022-08-17T12:43:19.811Z,22.60
2022-08-17T12:44:27.865Z,22.60
2022-08-17T12:45:45.370Z,22.50
2022-08-17T12:46:56.437Z,22.50
2022-08-17T12:48:07.902Z,22.50
2022-08-17T12:49:30.864Z,22.50
2022-08-17T12:50:35.921Z,22.50
2022-08-17T12:51:48.105Z,22.50
2022-08-17T12:52:52.816Z,22.50
2022-08-17T12:54:03.360Z,22.50
2022-08-17T12:55:12.929Z,22.40
2022-08-17T12:56:16.180Z,22.40
2022-08-17T12:57:24.278Z,22.40
2022-08-17T12:58:32.582Z,22.40
2022-08-17T12:59:40.213Z,22.40
2022-08-17T13:00:51.938Z,22.40
2022-08-17T13:01:57.949Z,22.40
2022-08-17T13:03:16.768Z,22.40
2022-08-17T13:04:26.510Z,22.40
2022-08-17T13:05:48.594Z,22.40
2022-08-17T13:06:51.902Z,22.40
2022-08-17T13:08:17.011Z,22.40
2022-08-17T13:09:35.879Z,22.40
2022-08-17T13:10:57.756Z,22.40
2022-08-17T13:12:01.350Z,22.40
2022-08-17T13:13:23.669Z,22.40
2022-08-17T13:14:29.822Z,22.40
2022-08-17T13:15:54.078Z,22.40
2022-08-17T13:17:01.071Z,22.40
2022-08-17T13:18:11.425Z,22.40
2022-08-17T13:19:29.911Z,22.50
2022-08-17T13:20:56.537Z,22.50
2022-08-17T13:22:04.064Z,22.50
2022-08-17T13:23:22.960Z,22.50
2022-08-17T13:24:30.561Z,22.50
2022-08-17T13:25:42.309Z,22.50
2022-08-17T13:26:48.869Z,22.50
2022-08-17T13:27:55.840Z,22.50
2022-08-17T13:28:59.488Z,22.50
2022-08-17T13:30:08.922Z,22.50
2022-08-17T13:31:52.581Z,22.50
2022-08-17T13:33:43.609Z,22.50
2022-08-17T13:35:11.944Z,22.50
2022-08-17T13:36:19.485Z,22.50
2022-08-17T13:37:36.299Z,22.50
2022-08-17T13:38:49.507Z,22.50
2022-08-17T13:39:56.437Z,22.50
2022-08-17T13:41:00.234Z,22.50
2022-08-17T13:42:25.935Z,22.50
2022-08-17T13:43:45.105Z,22.50
2022-08-17T13:44:47.706Z,22.50
2022-08-17T13:45:55.862Z,22.50
2022-08-17T13:47:05.776Z,22.50
2022-08-17T13:48:26.292Z,22.50
2022-08-17T13:49:41.945Z,22.50
2022-08-17T13:51:18.305Z,22.50
2022-08-17T13:52:48.807Z,22.50
2022-08-17T13:54:06.899Z,22.60
2022-08-17T13:55:20.651Z,22.60
2022-08-17T13:56:59.992Z,22.70
2022-08-17T13:58:29.185Z,22.70
2022-08-17T13:59:54.584Z,22.80
2022-08-17T14:00:59.055Z,22.90
2022-08-17T14:02:09.561Z,22.90
2022-08-17T14:03:16.460Z,22.90
2022-08-17T14:04:42.687Z,23.00
2022-08-17T14:05:55.822Z,23.00
2022-08-17T14:07:28.203Z,23.00
2022-08-17T14:08:36.868Z,23.00
2022-08-17T14:09:48.576Z,23.00
2022-08-17T14:10:59.530Z,23.10
2022-08-17T14:12:21.844Z,23.00
2022-08-17T14:13:57.140Z,23.00
2022-08-17T14:15:03.975Z,23.10
2022-08-17T14:16:07.243Z,23.10
2022-08-17T14:17:14.602Z,23.10
2022-08-17T14:18:55.249Z,23.10
2022-08-17T14:20:05.654Z,23.10
2022-08-17T14:21:11.858Z,23.10
2022-08-17T14:22:24.968Z,23.10
2022-08-17T14:23:38.505Z,23.10
2022-08-17T14:24:56.432Z,23.10
2022-08-17T14:26:01.514Z,23.10
2022-08-17T14:27:13.467Z,23.10
2022-08-17T14:28:19.858Z,23.20
2022-08-17T14:29:26.290Z,23.20
2022-08-17T14:30:32.431Z,23.20
2022-08-17T14:31:48.497Z,23.20
2022-08-17T14:33:08.019Z,23.20
2022-08-17T14:34:58.662Z,23.30
2022-08-17T14:36:02.483Z,23.30
2022-08-17T14:37:09.279Z,23.30
2022-08-17T14:38:18.832Z,23.30
2022-08-17T14:39:31.323Z,23.30
2022-08-17T14:40:42.564Z,23.20
2022-08-17T14:41:46.865Z,23.20
2022-08-17T14:42:52.669Z,23.20
2022-08-17T14:43:56.073Z,23.20
2022-08-17T14:45:29.719Z,23.20
2022-08-17T14:46:46.162Z,23.10
2022-08-17T14:47:52.903Z,23.10
2022-08-17T14:49:19.172Z,23.00
2022-08-17T14:50:27.317Z,23.00
2022-08-17T14:51:32.238Z,23.00
2022-08-17T14:52:35.428Z,23.00
2022-08-17T14:53:39.237Z,23.00
2022-08-17T14:54:45.765Z,23.00
2022-08-17T14:55:52.748Z,23.00
2022-08-17T14:57:09.386Z,23.00
2022-08-17T14:58:24.736Z,23.00
2022-08-17T14:59:28.559Z,23.00
2022-08-17T15:00:32.508Z,23.00
2022-08-17T15:01:40.055Z,23.10
2022-08-17T15:02:50.967Z,23.10
2022-08-17T15:04:10.280Z,23.10
2022-08-17T15:05:25.714Z,23.10
2022-08-17T15:06:52.668Z,23.10
2022-08-17T15:07:57.437Z,23.10
2022-08-17T15:09:02.832Z,23.10
2022-08-17T15:10:11.436Z,23.10
2022-08-17T15:11:15.220Z,23.20
2022-08-17T15:12:22.759Z,23.10
2022-08-17T15:13:28.439Z,23.10
2022-08-17T15:14:31.195Z,23.10
2022-08-17T15:15:37.542Z,23.10
2022-08-17T15:16:46.125Z,23.10
2022-08-17T15:18:15.810Z,23.00
2022-08-17T15:19:53.415Z,23.00
2022-08-17T15:20:57.313Z,23.00
2022-08-17T15:22:01.543Z,22.90
2022-08-17T15:23:09.700Z,22.90
2022-08-17T15:25:22.198Z,22.90
2022-08-17T15:26:30.628Z,22.80
2022-08-17T15:27:33.405Z,22.80
2022-08-17T15:28:37.745Z,22.70
2022-08-17T15:29:40.567Z,22.70
2022-08-17T15:30:54.543Z,22.60
2022-08-17T15:32:00.874Z,22.60
2022-08-17T15:33:24.428Z,22.60
2022-08-17T15:34:36.393Z,22.50
2022-08-17T15:35:45.777Z,22.50
2022-08-17T15:36:50.851Z,22.50
2022-08-17T15:38:08.100Z,22.50
2022-08-17T15:39:33.048Z,22.50
2022-08-17T15:40:41.175Z,22.50
2022-08-17T15:41:58.451Z,22.50
2022-08-17T15:43:13.060Z,22.50
2022-08-17T15:44:30.369Z,22.60
2022-08-17T15:45:59.793Z,22.60
2022-08-17T15:47:17.749Z,22.60
2022-08-17T15:48:41.829Z,22.70
2022-08-17T15:49:59.475Z,22.70
2022-08-17T15:51:05.892Z,22.80
2022-08-17T15:52:22.795Z,22.80
2022-08-17T15:53:29.332Z,22.80
2022-08-17T15:54:34.789Z,22.90
2022-08-17T15:55:46.521Z,22.90
2022-08-17T15:56:54.990Z,22.90